Estación meteorológica de Montseny - Vallcàrquera (Vallès Oriental, Parc Natural del Montseny)

Consulta los datos en tiempo real de la estación meteorológica de Montseny - Vallcàrquera





Hora UTC 06:50
Temperatura 18.8 ºC
Humedad 62.7 %
Pluja 0.0 mm
Velocidad viento 2.6 km/h
Dirección viento ENE
Radiación solar 232.5 W/m²

Datos diarios 2026-08-31



Hora UTC (invierno +1h; verano +2h)
Temperatura (ºC) Humedad (%) Velocidad viento (km/h) Precipitación (mm) Radiación solar (W/m²)
Hora UTC Aire Humedad Vel. Dir. Vel. Max Dir. Intent. máx 5 min. Rad. Sol.
00:05 17.8 57.5 2.6 NE 2.6 ENE 0.0 0.0
00:10 17.9 57.0 3.0 NE 6.7 ENE 0.0 0.0
00:15 18.2 56.1 2.0 NE 3.9 NE 0.0 0.0
00:20 18.1 56.6 1.8 NE 4.2 ENE 0.0 0.0
00:25 18.0 57.5 3.0 ENE 5.3 ENE 0.0 0.0
00:30 18.0 57.1 2.3 NE 4.2 E 0.0 0.0
00:35 17.9 57.7 1.1 NE 3.2 NE 0.0 0.0
00:40 17.7 58.8 2.0 NE 4.9 ENE 0.0 0.0
00:45 17.8 58.7 1.9 NNE 3.2 NE 0.0 0.0
00:50 17.6 59.7 2.5 NE 4.6 NE 0.0 0.0
00:55 17.6 59.8 2.4 NE 4.2 ENE 0.0 0.0
01:00 17.6 60.1 1.8 NE 4.2 NE 0.0 0.0
01:05 17.6 60.0 1.5 NNE 3.2 NE 0.0 0.0
01:10 17.6 60.6 1.1 NNE 3.5 NE 0.0 0.0
01:15 17.6 60.6 1.6 NNE 2.5 NNW 0.0 0.0
01:20 17.6 60.5 1.9 NE 3.2 ENE 0.0 0.0
01:25 17.5 61.5 2.4 NE 3.9 NNE 0.0 0.0
01:30 17.4 62.4 2.7 NE 5.3 ENE 0.0 0.0
01:35 17.4 62.3 1.4 NE 3.9 NE 0.0 0.0
01:40 17.2 63.4 2.2 NE 5.3 E 0.0 0.0
01:45 17.3 62.8 1.0 NNE 2.5 N 0.0 0.0
01:50 17.3 62.7 1.8 NE 3.5 NE 0.0 0.0
01:55 17.4 62.9 2.1 NE 4.6 NE 0.0 0.0
02:00 17.5 62.0 1.1 NNE 2.5 NE 0.0 0.0
02:05 17.4 63.0 2.5 NE 4.2 ENE 0.0 0.0
02:10 17.3 63.0 1.5 NE 3.5 E 0.0 0.0
02:15 17.1 64.0 2.1 NE 3.2 ENE 0.0 0.0
02:20 17.0 64.0 1.6 NE 3.9 ENE 0.0 0.0
02:25 17.1 63.5 0.9 N 2.1 N 0.0 0.0
02:30 17.2 63.2 2.0 NE 3.9 ENE 0.0 0.0
02:35 17.0 64.1 2.1 NE 4.9 ENE 0.0 0.0
02:40 17.1 63.7 1.9 NNE 4.6 NE 0.0 0.0
02:45 17.1 63.9 0.9 NE 3.2 E 0.0 0.0
02:50 16.9 64.7 2.1 NE 3.9 NNE 0.0 0.0
02:55 17.0 64.1 1.5 NNE 3.2 ENE 0.0 0.0
03:00 16.9 64.4 1.5 NE 3.2 ENE 0.0 0.0
03:05 16.8 64.7 1.7 NE 3.5 NNE 0.0 0.0
03:10 16.7 65.0 1.3 N 2.5 ENE 0.0 0.0
03:15 16.8 64.1 0.9 NNW 2.5 N 0.0 0.0
03:20 16.9 63.9 1.3 NNE 2.8 N 0.0 0.0
03:25 16.9 64.5 1.4 NNE 2.5 ENE 0.0 0.0
03:30 16.9 64.7 1.4 NNE 2.5 N 0.0 0.0
03:35 16.8 65.2 2.7 NE 4.6 ENE 0.0 0.0
03:40 16.4 66.8 2.8 ENE 4.6 ENE 0.0 0.0
03:45 16.5 66.4 1.5 NNE 2.1 N 0.0 0.0
03:50 16.4 66.5 1.2 NNE 2.8 ENE 0.0 0.0
03:55 16.4 66.4 1.3 NNE 2.5 ENE 0.0 0.0
04:00 16.4 66.7 1.2 NNE 2.8 ENE 0.0 0.0
04:05 16.4 66.9 1.7 NNE 2.8 N 0.0 0.0
04:10 16.4 66.6 1.6 NNE 3.5 ENE 0.0 0.0
04:15 16.4 67.0 0.6 NNE 1.8 NNE 0.0 0.0
04:20 16.3 67.4 1.3 NNE 2.5 NNE 0.0 0.0
04:25 16.2 68.0 1.5 NE 4.2 NNE 0.0 0.0
04:30 16.1 68.3 2.4 ENE 4.6 ENE 0.0 0.0
04:35 16.2 68.3 1.4 NNE 2.1 NE 0.0 0.0
04:40 16.1 68.4 1.6 NNE 4.6 NE 0.0 0.0
04:45 16.2 68.3 1.7 NNE 3.2 ENE 0.0 0.0
04:50 16.1 68.5 1.3 NNE 2.5 E 0.0 0.0
04:55 16.0 69.1 1.6 NNE 3.5 E 0.0 0.0
05:00 16.0 68.8 1.6 NNE 2.5 NE 0.0 0.0
05:05 16.0 68.9 1.6 NNE 2.8 ENE 0.0 0.0
05:10 16.0 69.2 0.8 NE 2.5 NE 0.0 0.0
05:15 15.9 69.8 0.8 NE 2.5 ENE 0.0 0.8
05:20 16.0 69.6 2.1 NNE 3.9 ENE 0.0 3.0
05:25 16.0 69.8 1.6 N 2.8 NNW 0.0 4.5
05:30 15.9 70.2 1.3 NNE 2.5 NE 0.0 7.2
05:35 15.8 70.7 1.9 NNE 4.6 ENE 0.0 9.2
05:40 15.9 70.1 2.0 N 3.2 N 0.0 12.1
05:45 16.0 70.5 1.0 NNE 3.2 NE 0.0 13.9
05:50 15.9 70.9 1.2 NNE 2.1 E 0.0 15.9
05:55 15.9 71.0 1.0 NNE 2.1 0.0 18.3
06:00 15.9 71.3 0.8 NNE 2.5 ENE 0.0 19.9
06:05 15.8 71.9 2.0 NNE 5.3 ENE 0.0 22.3
06:10 16.0 71.6 2.0 NE 3.5 ENE 0.0 24.7
06:15 16.0 71.8 2.9 NE 6.0 ENE 0.0 26.6
06:20 16.0 71.9 2.2 ENE 3.5 ENE 0.0 28.4
06:25 16.2 71.4 1.4 NNE 2.8 ENE 0.0 30.8
06:30 16.4 71.1 1.1 NNE 2.5 E 0.0 83.4
06:35 17.0 68.9 3.1 ENE 5.3 ENE 0.0 184.9
06:40 18.1 65.5 2.2 E 6.7 ENE 0.0 199.9
06:45 18.2 65.3 3.3 ENE 6.7 ENE 0.0 215.5
06:50 18.8 62.7 2.6 ENE 5.3 ENE 0.0 232.5
Máxima 18.8 71.9 3.3 ENE 6.7 ENE 0.0 232.5
Mínima 15.8 56.1
Total 0.0